首页
METAR-TAF:

METAR-TAF

机场 :

Batajnica, 塞尔维亚

纬度: 44-56-07N, 经度: 020-15-27E, 海拔: 86米

当前天气观测

该预报发布于33分钟前的00:00 UTC
静风
温度 1°C
湿度 100%
气压 1020 hPa
能見度: 0300

METAR: LYBT 080000Z 00000KT 0300 R12/0500D R30/0325N FG NSC 01/01 Q1020 NOSIG

时间: 01:33 (00:33 UTC)

预报

该预报发布于1小时和33分钟前的23:00 UTC
预报有效从08日的 00点(UTC)到 08日的 24点(UTC)
风速5节,风向东北
能見度: 0200
层高于100英尺
成为
从 08日的 09点(UTC)到 08日的 12点(UTC)
能見度: 4000
散云层高于1000英尺
散云层高于2000英尺
轻雾
成为
从 08日的 18点(UTC)到 08日的 20点(UTC)
能見度: 0600

TAF: LYBT 072300Z 0800/0824 05005KT 0200 FG VV001 TX10/0813Z TN01/0806Z BECMG 0809/0812 4000 BR SCT010 SCT020 BECMG 0818/0820 0600 FG

超过4000个机场的气象观测和天气预报(METAR&TAF报告)。

可查询的气象台以黄色和红色小点在地图上表示。

将鼠标移到小点上方,可查看气象台名称。

然后点击查看天气观测和预报。

如需切换地图:点击带黑十字的绿色按钮放大地图;点击带横线的绿色按钮缩小地图;或者点击绿色箭头查看邻近地区的地图。


METAR-TAF: